logo
Search for airport 
image banner adimage banner adimage banner ad
image banner ad

MMVHA - Vista Hermosa

Located in Puente De Ixtla, Mexico

ICAO - , IATA -

Data provided by Airmate  

General information

Coordinates: N18°38'55" W99°15'44"
Elevation is 3267 feet MSL.
Magnetic variation is 4° East
View others Airports in Moreloa

Operational data

Special qualification required
Current time UTC:
Current local time:
METAR: MMCB 132342Z 02004KT 6SM SKC 33/04 A3004 RMK HZY
TAF: TAF MMCB 131606Z 1318/1418 16008KT 6SM HZ SCT025 FM140300 35004KT 6SM HZ SKC TEMPO 1412/1416 4SM HZ FM141700 16005KT 6SM HZ SKC
View NOTAMs / SUP AIP / TFR affecting this airport [VIEW]
Communications frequencies: [VIEW]

Runways:

RWY identifierQFULength (ft)Width (ft)SurfaceLDA (ft)
02R31°00UNK
20L211°00UNK
20R211°00UNK
02L31°00UNK

Airport contact information

Address: Puente De Ixtla Mexico

Satellite view of MMVHA